createdAt,value
2023-03-22T00:01:32.527Z,11.60
2023-03-22T00:04:00.906Z,11.70
2023-03-22T00:06:29.006Z,11.70
2023-03-22T00:08:57.113Z,11.70
2023-03-22T00:11:25.924Z,11.70
2023-03-22T00:13:55.145Z,11.70
2023-03-22T00:16:23.926Z,11.60
2023-03-22T00:18:53.581Z,11.60
2023-03-22T00:21:21.967Z,11.60
2023-03-22T00:23:50.895Z,11.50
2023-03-22T00:26:19.255Z,11.50
2023-03-22T00:28:47.777Z,11.40
2023-03-22T00:31:15.992Z,11.40
2023-03-22T00:33:44.306Z,11.20
2023-03-22T00:36:14.359Z,11.20
2023-03-22T00:38:44.286Z,11.30
2023-03-22T00:41:16.135Z,11.30
2023-03-22T00:43:46.253Z,11.30
2023-03-22T00:46:15.100Z,11.30
2023-03-22T00:48:43.640Z,11.40
2023-03-22T00:51:13.906Z,11.40
2023-03-22T00:53:43.421Z,11.40
2023-03-22T00:56:15.711Z,11.40
2023-03-22T00:59:04.520Z,11.40
2023-03-22T01:01:32.960Z,11.50
2023-03-22T01:04:01.818Z,11.50
2023-03-22T01:06:31.908Z,11.50
2023-03-22T01:09:00.048Z,11.50
2023-03-22T01:11:28.603Z,11.50
2023-03-22T01:13:57.216Z,11.50
2023-03-22T01:16:26.291Z,11.50
2023-03-22T01:18:54.715Z,11.60
2023-03-22T01:21:24.077Z,11.60
2023-03-22T01:23:53.656Z,11.60
2023-03-22T01:26:21.870Z,11.50
2023-03-22T01:28:50.241Z,11.60
2023-03-22T01:31:18.532Z,11.50
2023-03-22T01:33:46.819Z,11.50
2023-03-22T01:36:15.339Z,11.50
2023-03-22T01:38:43.545Z,11.50
2023-03-22T01:41:13.309Z,11.50
2023-03-22T01:43:43.752Z,11.50
2023-03-22T01:46:12.200Z,11.50
2023-03-22T01:48:46.115Z,11.50
2023-03-22T01:51:20.607Z,11.50
2023-03-22T01:54:31.688Z,11.50
2023-03-22T01:57:03.334Z,11.50
2023-03-22T01:59:39.758Z,11.50
2023-03-22T02:02:25.771Z,11.50
2023-03-22T02:05:04.066Z,11.50
2023-03-22T02:07:32.633Z,11.50
2023-03-22T02:10:03.716Z,11.50
2023-03-22T02:12:55.871Z,11.50
2023-03-22T02:15:47.225Z,11.40
2023-03-22T02:18:51.460Z,11.40
2023-03-22T02:21:44.494Z,11.40
2023-03-22T02:24:46.165Z,11.40
2023-03-22T02:27:25.005Z,11.40
2023-03-22T02:30:04.075Z,11.40
2023-03-22T02:32:55.656Z,11.30
2023-03-22T02:35:46.774Z,11.40
2023-03-22T02:38:48.773Z,11.30
2023-03-22T02:41:26.571Z,11.40
2023-03-22T02:44:05.735Z,11.30
2023-03-22T02:46:42.962Z,11.40
2023-03-22T02:49:19.572Z,11.30
2023-03-22T02:51:53.436Z,11.40
2023-03-22T02:54:29.764Z,11.40
2023-03-22T02:57:03.934Z,11.30
2023-03-22T02:59:34.194Z,11.30
2023-03-22T03:02:04.715Z,11.30
2023-03-22T03:04:37.000Z,11.40
2023-03-22T03:07:09.392Z,11.40
2023-03-22T03:09:42.018Z,11.40
2023-03-22T03:12:16.020Z,11.40
2023-03-22T03:14:44.240Z,11.30
2023-03-22T03:17:24.887Z,11.30
2023-03-22T03:20:07.983Z,11.30
2023-03-22T03:22:46.230Z,11.30
2023-03-22T03:25:24.986Z,11.30
2023-03-22T03:28:01.337Z,11.20
2023-03-22T03:30:35.234Z,11.10
2023-03-22T03:33:09.427Z,11.10
2023-03-22T03:35:42.182Z,11.00
2023-03-22T03:38:17.510Z,11.00
2023-03-22T03:40:49.647Z,10.90
2023-03-22T03:43:18.940Z,10.90
2023-03-22T03:45:47.563Z,11.00
2023-03-22T03:48:20.174Z,11.00
2023-03-22T03:50:50.344Z,11.00
2023-03-22T03:53:18.774Z,11.00
2023-03-22T03:55:48.660Z,11.00
2023-03-22T03:58:17.809Z,11.00
2023-03-22T04:00:48.307Z,11.00
2023-03-22T04:03:46.543Z,11.00
2023-03-22T04:06:34.791Z,11.00
2023-03-22T04:09:09.907Z,11.10
2023-03-22T04:11:44.414Z,11.10
2023-03-22T04:14:13.627Z,11.00
2023-03-22T04:16:41.836Z,11.00
2023-03-22T04:19:13.458Z,10.90
2023-03-22T04:21:41.584Z,11.00
2023-03-22T04:24:11.179Z,11.00
2023-03-22T04:26:44.670Z,11.00
2023-03-22T04:29:20.169Z,10.90
2023-03-22T04:31:53.154Z,10.90
2023-03-22T04:34:28.561Z,11.00
2023-03-22T04:37:02.643Z,11.00
2023-03-22T04:39:36.601Z,10.90
2023-03-22T04:42:32.547Z,10.90
2023-03-22T04:45:09.896Z,10.90
2023-03-22T04:47:38.969Z,10.90
2023-03-22T04:50:10.024Z,10.80
2023-03-22T04:52:48.075Z,10.80
2023-03-22T04:55:16.716Z,10.80
2023-03-22T04:57:47.558Z,10.70
2023-03-22T05:00:17.209Z,10.60
2023-03-22T05:02:45.462Z,10.50
2023-03-22T05:05:29.247Z,10.50
2023-03-22T05:07:57.498Z,10.50
2023-03-22T05:10:26.510Z,10.50
2023-03-22T05:12:56.875Z,10.50
2023-03-22T05:15:29.036Z,10.50
2023-03-22T05:17:57.324Z,10.50
2023-03-22T05:20:25.907Z,10.50
2023-03-22T05:23:14.424Z,10.50
2023-03-22T05:25:46.984Z,10.60
2023-03-22T05:28:21.428Z,10.60
2023-03-22T05:31:17.882Z,10.60
2023-03-22T05:33:54.104Z,10.60
2023-03-22T05:36:24.941Z,10.60
2023-03-22T05:39:22.936Z,10.60
2023-03-22T05:41:52.433Z,10.60
2023-03-22T05:44:22.134Z,10.60
2023-03-22T05:47:00.107Z,10.60
2023-03-22T05:49:34.169Z,10.60
2023-03-22T05:52:06.063Z,10.60
2023-03-22T05:54:56.847Z,10.60
2023-03-22T05:57:25.075Z,10.60
2023-03-22T05:59:54.694Z,10.70
2023-03-22T06:02:29.373Z,10.70
2023-03-22T06:04:57.819Z,10.80
2023-03-22T06:07:27.087Z,10.80
2023-03-22T06:09:58.028Z,10.80
2023-03-22T06:12:30.223Z,10.90
2023-03-22T06:15:10.937Z,10.90
2023-03-22T06:18:01.310Z,10.90
2023-03-22T06:20:33.161Z,11.00
2023-03-22T06:23:05.241Z,11.00
2023-03-22T06:25:35.299Z,11.10
2023-03-22T06:28:03.900Z,11.20
2023-03-22T06:30:33.934Z,11.20
2023-03-22T06:33:22.544Z,11.10
2023-03-22T06:35:56.479Z,11.20
2023-03-22T06:38:38.412Z,11.30
2023-03-22T06:41:06.941Z,11.30
2023-03-22T06:43:35.325Z,11.30
2023-03-22T06:46:16.825Z,11.30
2023-03-22T06:48:55.525Z,11.30
2023-03-22T06:51:23.977Z,11.30
2023-03-22T06:53:52.313Z,11.40
2023-03-22T06:56:20.535Z,11.40
2023-03-22T06:58:52.857Z,11.40
2023-03-22T07:01:22.661Z,11.50
2023-03-22T07:03:50.907Z,11.50
2023-03-22T07:06:22.821Z,11.50
2023-03-22T07:08:52.301Z,11.60
2023-03-22T07:11:26.935Z,11.60
2023-03-22T07:14:00.407Z,11.70
2023-03-22T07:16:40.993Z,11.70
2023-03-22T07:19:09.774Z,11.70
2023-03-22T07:21:38.887Z,11.80
2023-03-22T07:24:13.868Z,11.90
2023-03-22T07:26:42.938Z,12.00
2023-03-22T07:29:16.734Z,11.90
2023-03-22T07:31:46.629Z,12.00
2023-03-22T07:34:22.964Z,12.10
2023-03-22T07:37:07.978Z,12.20
2023-03-22T07:39:36.315Z,12.20
2023-03-22T07:42:07.024Z,12.30
2023-03-22T07:44:44.261Z,12.20
2023-03-22T07:47:14.019Z,12.30
2023-03-22T07:49:55.338Z,12.40
2023-03-22T07:52:28.202Z,12.50
2023-03-22T07:54:56.674Z,12.60
2023-03-22T07:57:25.233Z,12.70
2023-03-22T07:59:57.713Z,12.80
2023-03-22T08:02:33.184Z,12.90
2023-03-22T08:05:01.649Z,13.00
2023-03-22T08:07:37.796Z,13.00
2023-03-22T08:10:06.468Z,13.00
2023-03-22T08:12:36.501Z,13.10
2023-03-22T08:15:13.144Z,13.10
2023-03-22T08:17:44.713Z,13.20
2023-03-22T08:20:19.714Z,13.30
2023-03-22T08:22:55.660Z,13.30
2023-03-22T08:25:59.145Z,13.50
2023-03-22T08:28:27.963Z,13.60
2023-03-22T08:30:56.449Z,13.60
2023-03-22T08:33:26.946Z,13.70
2023-03-22T08:36:06.537Z,13.70
2023-03-22T08:38:37.915Z,13.80
2023-03-22T08:41:08.114Z,13.80
2023-03-22T08:43:36.330Z,13.70
2023-03-22T08:46:04.781Z,13.70
2023-03-22T08:48:38.049Z,13.80
2023-03-22T08:51:25.254Z,13.80
2023-03-22T08:54:13.008Z,13.90
2023-03-22T08:56:54.026Z,14.00
2023-03-22T08:59:41.715Z,14.10
2023-03-22T09:02:33.107Z,14.20
2023-03-22T09:05:03.583Z,14.30
2023-03-22T09:07:33.264Z,14.40
2023-03-22T09:10:18.996Z,14.50
2023-03-22T09:12:49.947Z,14.40
2023-03-22T09:15:18.599Z,14.40
2023-03-22T09:17:55.752Z,14.50
2023-03-22T09:20:26.022Z,14.60
2023-03-22T09:22:54.586Z,14.60
2023-03-22T09:25:23.874Z,14.80
2023-03-22T09:27:53.500Z,15.00
2023-03-22T09:30:21.782Z,15.10
2023-03-22T09:32:50.421Z,15.20
2023-03-22T09:35:21.476Z,15.30
2023-03-22T09:38:06.049Z,15.40
2023-03-22T09:40:36.164Z,15.40
2023-03-22T09:43:07.461Z,15.40
2023-03-22T09:45:39.868Z,15.30
2023-03-22T09:48:15.782Z,15.40
2023-03-22T09:50:49.344Z,15.50
2023-03-22T09:53:19.798Z,15.50
2023-03-22T09:55:54.241Z,15.40
2023-03-22T09:58:29.794Z,15.40
2023-03-22T10:01:01.592Z,15.50
2023-03-22T10:03:48.644Z,15.70
2023-03-22T10:06:20.559Z,15.90
2023-03-22T10:08:58.297Z,16.10
2023-03-22T10:11:36.282Z,16.20
2023-03-22T10:14:13.272Z,16.30
2023-03-22T10:16:42.121Z,16.10
2023-03-22T10:19:25.681Z,16.30
2023-03-22T10:21:57.449Z,16.30
2023-03-22T10:24:29.706Z,16.30
2023-03-22T10:26:57.888Z,16.50
2023-03-22T10:29:33.419Z,16.60
2023-03-22T10:32:15.303Z,16.70
2023-03-22T10:34:44.023Z,16.60
2023-03-22T10:37:16.491Z,16.40
2023-03-22T10:39:49.809Z,16.50
2023-03-22T10:42:21.791Z,16.70
2023-03-22T10:44:54.694Z,16.70
2023-03-22T10:47:31.785Z,16.70
2023-03-22T10:50:02.840Z,16.80
2023-03-22T10:52:42.178Z,17.00
2023-03-22T10:55:14.629Z,17.10
2023-03-22T10:57:44.098Z,17.10
2023-03-22T11:00:17.928Z,17.20
2023-03-22T11:02:52.293Z,17.20
2023-03-22T11:05:23.860Z,17.40
2023-03-22T11:07:52.612Z,17.40
2023-03-22T11:10:27.476Z,17.40
2023-03-22T11:12:58.115Z,17.60
2023-03-22T11:15:31.653Z,17.70
2023-03-22T11:18:02.688Z,17.70
2023-03-22T11:20:31.502Z,17.70
2023-03-22T11:23:04.887Z,17.80
2023-03-22T11:25:37.664Z,17.90
2023-03-22T11:28:16.492Z,17.70
2023-03-22T11:30:59.834Z,17.80
2023-03-22T11:33:28.209Z,17.80
2023-03-22T11:35:58.053Z,17.80
2023-03-22T11:38:29.607Z,17.90
2023-03-22T11:41:02.492Z,17.70
2023-03-22T11:43:36.855Z,17.80
2023-03-22T11:46:06.772Z,18.00
2023-03-22T11:48:36.793Z,18.20
2023-03-22T11:51:09.620Z,18.20
2023-03-22T11:53:41.545Z,18.30
2023-03-22T11:56:17.887Z,18.40
2023-03-22T11:59:00.054Z,18.40
2023-03-22T12:01:48.348Z,18.60
2023-03-22T12:04:20.801Z,18.70
2023-03-22T12:06:50.551Z,18.70
2023-03-22T12:09:27.116Z,18.80
2023-03-22T12:11:58.583Z,19.00
2023-03-22T12:14:32.188Z,19.10
2023-03-22T12:17:07.131Z,19.00
2023-03-22T12:19:53.110Z,19.00
2023-03-22T12:22:25.770Z,19.20
2023-03-22T12:24:54.096Z,19.20
2023-03-22T12:27:27.917Z,19.40
2023-03-22T12:30:00.926Z,19.40
2023-03-22T12:32:33.640Z,19.40
2023-03-22T12:35:16.573Z,19.50
2023-03-22T12:37:55.377Z,19.60
2023-03-22T12:40:27.164Z,19.60
2023-03-22T12:43:10.518Z,19.20
2023-03-22T12:45:43.662Z,19.10
2023-03-22T12:48:18.918Z,19.20
2023-03-22T12:50:52.256Z,19.20
2023-03-22T12:53:23.318Z,19.20
2023-03-22T12:55:52.561Z,19.10
2023-03-22T12:58:26.815Z,19.10
2023-03-22T13:00:58.779Z,19.00
2023-03-22T13:03:30.111Z,18.90
2023-03-22T13:06:03.062Z,19.10
2023-03-22T13:09:15.788Z,19.20
2023-03-22T13:11:46.146Z,19.40
2023-03-22T13:14:58.143Z,19.30
2023-03-22T13:17:44.764Z,19.50
2023-03-22T13:20:28.636Z,19.30
2023-03-22T13:23:10.561Z,19.10
2023-03-22T13:25:40.256Z,19.20
2023-03-22T13:28:24.535Z,19.30
2023-03-22T13:30:55.657Z,19.30
2023-03-22T13:33:28.577Z,19.10
2023-03-22T13:35:59.081Z,19.10
2023-03-22T13:38:29.667Z,19.10
2023-03-22T13:41:02.878Z,19.10
2023-03-22T13:43:34.589Z,19.10
2023-03-22T13:46:25.010Z,19.00
2023-03-22T13:49:00.429Z,18.90
2023-03-22T13:51:31.954Z,18.90
2023-03-22T13:54:05.790Z,18.80
2023-03-22T13:56:52.861Z,18.90
2023-03-22T13:59:27.196Z,18.90
2023-03-22T14:02:00.282Z,19.10
2023-03-22T14:04:35.006Z,18.90
2023-03-22T14:07:13.248Z,18.70
2023-03-22T14:09:46.467Z,18.70
2023-03-22T14:12:21.313Z,18.80
2023-03-22T14:14:53.701Z,18.90
2023-03-22T14:17:35.116Z,19.00
2023-03-22T14:20:08.383Z,19.00
